sensor_id;sensor_type;location;lat;lon;timestamp;pressure;altitude;pressure_sealevel;temperature;humidity
10464;BME280;5279;42.048;24.638;2022-10-19T00:01:13;98063.47;;;9.63;55.12
10464;BME280;5279;42.048;24.638;2022-10-19T00:03:43;98061.94;;;9.49;58.19
10464;BME280;5279;42.048;24.638;2022-10-19T00:06:12;98056.06;;;9.46;58.14
10464;BME280;5279;42.048;24.638;2022-10-19T00:08:40;98052.38;;;9.37;58.51
10464;BME280;5279;42.048;24.638;2022-10-19T00:11:07;98046.44;;;9.24;55.60
10464;BME280;5279;42.048;24.638;2022-10-19T00:13:34;98040.63;;;9.30;56.32
10464;BME280;5279;42.048;24.638;2022-10-19T00:16:06;98047.81;;;9.39;57.45
10464;BME280;5279;42.048;24.638;2022-10-19T00:18:33;98040.88;;;9.27;58.69
10464;BME280;5279;42.048;24.638;2022-10-19T00:21:07;98037.75;;;9.22;58.78
10464;BME280;5279;42.048;24.638;2022-10-19T00:23:34;98028.44;;;9.07;58.44
10464;BME280;5279;42.048;24.638;2022-10-19T00:26:01;98025.09;;;9.05;58.28
10464;BME280;5279;42.048;24.638;2022-10-19T00:28:28;98018.09;;;9.04;55.90
10464;BME280;5279;42.048;24.638;2022-10-19T00:30:54;98012.31;;;9.10;58.32
10464;BME280;5279;42.048;24.638;2022-10-19T00:33:22;98017.84;;;9.07;58.35
10464;BME280;5279;42.048;24.638;2022-10-19T00:35:50;98018.34;;;9.01;57.81
10464;BME280;5279;42.048;24.638;2022-10-19T00:38:19;98005.84;;;9.03;57.44
10464;BME280;5279;42.048;24.638;2022-10-19T00:40:47;98003.94;;;9.05;59.42
10464;BME280;5279;42.048;24.638;2022-10-19T00:43:15;98004.69;;;8.96;59.89
10464;BME280;5279;42.048;24.638;2022-10-19T00:45:42;97999.41;;;8.85;60.25
10464;BME280;5279;42.048;24.638;2022-10-19T00:48:12;97996.31;;;8.79;58.54
10464;BME280;5279;42.048;24.638;2022-10-19T00:50:50;97993.88;;;8.99;54.00
10464;BME280;5279;42.048;24.638;2022-10-19T00:53:19;97996.72;;;9.07;61.07
10464;BME280;5279;42.048;24.638;2022-10-19T00:55:46;97987.16;;;8.95;60.01
10464;BME280;5279;42.048;24.638;2022-10-19T00:58:14;97988.84;;;8.96;57.66
10464;BME280;5279;42.048;24.638;2022-10-19T01:00:40;97987.16;;;8.95;58.62
10464;BME280;5279;42.048;24.638;2022-10-19T01:03:08;97986.91;;;8.98;58.97
10464;BME280;5279;42.048;24.638;2022-10-19T01:05:37;97980.66;;;8.99;59.80
10464;BME280;5279;42.048;24.638;2022-10-19T01:08:05;97970.78;;;9.01;59.03
10464;BME280;5279;42.048;24.638;2022-10-19T01:10:39;97976.31;;;8.98;59.95
10464;BME280;5279;42.048;24.638;2022-10-19T01:13:22;97968.91;;;8.92;58.95
10464;BME280;5279;42.048;24.638;2022-10-19T01:15:57;97962.31;;;8.86;57.90
10464;BME280;5279;42.048;24.638;2022-10-19T01:18:35;97959.03;;;8.94;58.84
10464;BME280;5279;42.048;24.638;2022-10-19T01:21:22;97964.31;;;8.94;58.97
10464;BME280;5279;42.048;24.638;2022-10-19T01:24:17;97970.03;;;8.78;58.90
10464;BME280;5279;42.048;24.638;2022-10-19T01:27:20;97960.28;;;8.78;57.21
10464;BME280;5279;42.048;24.638;2022-10-19T01:30:02;97955.34;;;8.85;57.93
10464;BME280;5279;42.048;24.638;2022-10-19T01:32:39;97961.22;;;8.89;59.22
10464;BME280;5279;42.048;24.638;2022-10-19T01:35:12;97948.06;;;8.77;59.40
10464;BME280;5279;42.048;24.638;2022-10-19T01:37:47;97958.38;;;8.81;56.21
10464;BME280;5279;42.048;24.638;2022-10-19T01:40:22;97950.56;;;8.79;55.60
10464;BME280;5279;42.048;24.638;2022-10-19T01:42:56;97942.53;;;8.81;56.58
10464;BME280;5279;42.048;24.638;2022-10-19T01:45:29;97941.41;;;8.83;57.66
10464;BME280;5279;42.048;24.638;2022-10-19T01:48:03;97949.22;;;8.85;59.26
10464;BME280;5279;42.048;24.638;2022-10-19T01:50:37;97948.06;;;8.77;60.79
10464;BME280;5279;42.048;24.638;2022-10-19T01:53:06;97943.53;;;8.68;61.58
10464;BME280;5279;42.048;24.638;2022-10-19T01:55:35;97942.22;;;8.63;62.31
10464;BME280;5279;42.048;24.638;2022-10-19T01:58:06;97946.66;;;8.51;61.34
10464;BME280;5279;42.048;24.638;2022-10-19T02:00:39;97944.88;;;8.52;59.16
10464;BME280;5279;42.048;24.638;2022-10-19T02:03:09;97939.88;;;8.38;61.67
10464;BME280;5279;42.048;24.638;2022-10-19T02:05:38;97922.34;;;8.14;58.25
10464;BME280;5279;42.048;24.638;2022-10-19T02:08:11;97932.91;;;8.14;59.54
10464;BME280;5279;42.048;24.638;2022-10-19T02:10:40;97926.78;;;8.14;62.67
10464;BME280;5279;42.048;24.638;2022-10-19T02:13:10;97925.81;;;8.15;64.09
10464;BME280;5279;42.048;24.638;2022-10-19T02:15:43;97910.34;;;8.10;65.00
10464;BME280;5279;42.048;24.638;2022-10-19T02:18:12;97920.56;;;8.04;65.05
10464;BME280;5279;42.048;24.638;2022-10-19T02:20:41;97909.03;;;7.94;64.73
10464;BME280;5279;42.048;24.638;2022-10-19T02:23:08;97905.94;;;7.89;66.78
10464;BME280;5279;42.048;24.638;2022-10-19T02:25:35;97900.06;;;7.74;66.26
10464;BME280;5279;42.048;24.638;2022-10-19T02:28:03;97901.38;;;7.80;66.54
10464;BME280;5279;42.048;24.638;2022-10-19T02:30:31;97891.75;;;7.79;65.53
10464;BME280;5279;42.048;24.638;2022-10-19T02:32:59;97880.03;;;7.83;64.04
10464;BME280;5279;42.048;24.638;2022-10-19T02:35:26;97890.69;;;7.92;62.21
10464;BME280;5279;42.048;24.638;2022-10-19T02:37:54;97881.34;;;7.99;63.40
10464;BME280;5279;42.048;24.638;2022-10-19T02:40:24;97889.34;;;8.09;61.78
10464;BME280;5279;42.048;24.638;2022-10-19T02:42:56;97892.44;;;8.25;60.13
10464;BME280;5279;42.048;24.638;2022-10-19T02:45:27;97887.91;;;8.38;61.41
10464;BME280;5279;42.048;24.638;2022-10-19T02:47:57;97889.56;;;8.39;61.18
10464;BME280;5279;42.048;24.638;2022-10-19T02:50:27;97892.00;;;8.31;62.38
10464;BME280;5279;42.048;24.638;2022-10-19T02:52:57;97888.63;;;8.29;61.29
10464;BME280;5279;42.048;24.638;2022-10-19T02:55:23;97893.69;;;8.32;60.23
10464;BME280;5279;42.048;24.638;2022-10-19T02:57:50;97883.34;;;8.29;61.91
10464;BME280;5279;42.048;24.638;2022-10-19T03:00:18;97883.34;;;8.29;62.97
10464;BME280;5279;42.048;24.638;2022-10-19T03:02:52;97882.28;;;8.32;61.56
10464;BME280;5279;42.048;24.638;2022-10-19T03:05:19;97880.34;;;8.34;61.42
10464;BME280;5279;42.048;24.638;2022-10-19T03:07:47;97881.44;;;8.31;61.19
10464;BME280;5279;42.048;24.638;2022-10-19T03:10:14;97876.59;;;8.25;62.47
10464;BME280;5279;42.048;24.638;2022-10-19T03:12:41;97873.25;;;8.23;61.91
10464;BME280;5279;42.048;24.638;2022-10-19T03:15:09;97878.53;;;8.23;60.33
10464;BME280;5279;42.048;24.638;2022-10-19T03:17:40;97870.13;;;8.18;59.73
10464;BME280;5279;42.048;24.638;2022-10-19T03:20:08;97870.63;;;8.12;59.73
10464;BME280;5279;42.048;24.638;2022-10-19T03:22:35;97876.16;;;8.09;59.55
10464;BME280;5279;42.048;24.638;2022-10-19T03:25:04;97871.59;;;8.11;58.41
10464;BME280;5279;42.048;24.638;2022-10-19T03:27:31;97879.63;;;8.09;56.99
10464;BME280;5279;42.048;24.638;2022-10-19T03:29:57;97866.28;;;8.22;56.35
10464;BME280;5279;42.048;24.638;2022-10-19T03:32:30;97864.13;;;8.27;56.17
10464;BME280;5279;42.048;24.638;2022-10-19T03:34:57;97857.66;;;8.20;60.69
10464;BME280;5279;42.048;24.638;2022-10-19T03:37:24;97859.16;;;8.02;61.99
10464;BME280;5279;42.048;24.638;2022-10-19T03:39:51;97862.97;;;7.98;60.14
10464;BME280;5279;42.048;24.638;2022-10-19T03:42:19;97866.56;;;7.97;60.88
10464;BME280;5279;42.048;24.638;2022-10-19T03:44:45;97862.75;;;8.01;62.00
10464;BME280;5279;42.048;24.638;2022-10-19T03:47:12;97857.47;;;8.01;60.42
10464;BME280;5279;42.048;24.638;2022-10-19T03:49:39;97859.25;;;8.11;57.60
10464;BME280;5279;42.048;24.638;2022-10-19T03:52:08;97852.88;;;8.14;60.65
10464;BME280;5279;42.048;24.638;2022-10-19T03:54:35;97856.69;;;8.21;61.55
10464;BME280;5279;42.048;24.638;2022-10-19T03:57:02;97858.50;;;8.09;62.95
10464;BME280;5279;42.048;24.638;2022-10-19T03:59:36;97855.56;;;7.81;64.20
10464;BME280;5279;42.048;24.638;2022-10-19T04:02:03;97856.53;;;7.68;64.64
10464;BME280;5279;42.048;24.638;2022-10-19T04:04:30;97848.38;;;7.60;57.83
10464;BME280;5279;42.048;24.638;2022-10-19T04:06:57;97839.75;;;7.58;62.04
10464;BME280;5279;42.048;24.638;2022-10-19T04:09:24;97845.38;;;7.65;63.66
10464;BME280;5279;42.048;24.638;2022-10-19T04:11:51;97834.25;;;7.61;62.94
10464;BME280;5279;42.048;24.638;2022-10-19T04:14:19;97848.13;;;7.63;61.71
10464;BME280;5279;42.048;24.638;2022-10-19T04:16:48;97841.28;;;7.72;60.05
10464;BME280;5279;42.048;24.638;2022-10-19T04:19:15;97835.91;;;7.74;60.81
10464;BME280;5279;42.048;24.638;2022-10-19T04:21:42;97853.19;;;7.78;60.11
10464;BME280;5279;42.048;24.638;2022-10-19T04:24:11;97848.84;;;7.88;59.69
10464;BME280;5279;42.048;24.638;2022-10-19T04:26:41;97834.22;;;7.84;61.11
10464;BME280;5279;42.048;24.638;2022-10-19T04:29:11;97840.69;;;7.80;61.11
10464;BME280;5279;42.048;24.638;2022-10-19T04:31:40;97830.16;;;7.68;61.11
10464;BME280;5279;42.048;24.638;2022-10-19T04:34:08;97832.78;;;7.80;58.93
10464;BME280;5279;42.048;24.638;2022-10-19T04:36:35;97838.31;;;7.77;60.72
10464;BME280;5279;42.048;24.638;2022-10-19T04:39:02;97838.53;;;7.85;61.71
10464;BME280;5279;42.048;24.638;2022-10-19T04:41:29;97829.69;;;7.75;61.39
10464;BME280;5279;42.048;24.638;2022-10-19T04:43:58;97833.63;;;7.80;61.84
10464;BME280;5279;42.048;24.638;2022-10-19T04:46:27;97808.09;;;7.58;61.91
10464;BME280;5279;42.048;24.638;2022-10-19T04:48:55;97821.53;;;7.55;62.97
10464;BME280;5279;42.048;24.638;2022-10-19T04:51:24;97822.25;;;7.57;59.38
10464;BME280;5279;42.048;24.638;2022-10-19T04:53:51;97821.53;;;7.66;59.41
10464;BME280;5279;42.048;24.638;2022-10-19T04:56:21;97805.69;;;7.66;59.71
10464;BME280;5279;42.048;24.638;2022-10-19T04:58:53;97818.66;;;7.81;60.45
10464;BME280;5279;42.048;24.638;2022-10-19T05:01:20;97816.22;;;7.89;60.93
10464;BME280;5279;42.048;24.638;2022-10-19T05:03:51;97820.22;;;8.26;57.87
10464;BME280;5279;42.048;24.638;2022-10-19T05:06:18;97824.22;;;8.52;55.32
10464;BME280;5279;42.048;24.638;2022-10-19T05:08:47;97815.38;;;8.74;54.21
10464;BME280;5279;42.048;24.638;2022-10-19T05:11:15;97816.06;;;8.97;52.66
10464;BME280;5279;42.048;24.638;2022-10-19T05:13:46;97811.94;;;9.04;52.70
10464;BME280;5279;42.048;24.638;2022-10-19T05:16:15;97811.38;;;9.30;52.82
10464;BME280;5279;42.048;24.638;2022-10-19T05:18:46;97810.84;;;9.57;50.19
10464;BME280;5279;42.048;24.638;2022-10-19T05:21:13;97813.75;;;9.64;50.28
10464;BME280;5279;42.048;24.638;2022-10-19T05:23:41;97811.78;;;9.86;50.50
10464;BME280;5279;42.048;24.638;2022-10-19T05:26:11;97818.00;;;10.16;48.72
10464;BME280;5279;42.048;24.638;2022-10-19T05:28:38;97810.50;;;10.40;47.12
10464;BME280;5279;42.048;24.638;2022-10-19T05:31:07;97808.97;;;10.57;48.35
10464;BME280;5279;42.048;24.638;2022-10-19T05:33:35;97804.66;;;10.65;46.84
10464;BME280;5279;42.048;24.638;2022-10-19T05:36:13;97810.50;;;10.88;46.27
10464;BME280;5279;42.048;24.638;2022-10-19T05:38:40;97806.53;;;11.21;46.41
10464;BME280;5279;42.048;24.638;2022-10-19T05:41:09;97808.06;;;11.60;46.02
10464;BME280;5279;42.048;24.638;2022-10-19T05:43:36;97807.03;;;12.07;45.34
10464;BME280;5279;42.048;24.638;2022-10-19T05:46:04;97814.22;;;12.60;44.84
10464;BME280;5279;42.048;24.638;2022-10-19T05:48:32;97805.75;;;13.00;43.00
10464;BME280;5279;42.048;24.638;2022-10-19T05:51:00;97805.34;;;13.30;41.07
10464;BME280;5279;42.048;24.638;2022-10-19T05:53:27;97805.91;;;13.42;41.37
10464;BME280;5279;42.048;24.638;2022-10-19T05:55:54;97799.00;;;13.57;40.62
10464;BME280;5279;42.048;24.638;2022-10-19T05:58:23;97789.06;;;13.67;44.73
10464;BME280;5279;42.048;24.638;2022-10-19T06:00:51;97798.38;;;13.63;44.88
10464;BME280;5279;42.048;24.638;2022-10-19T06:03:18;97802.31;;;13.85;44.47
10464;BME280;5279;42.048;24.638;2022-10-19T06:05:45;97798.69;;;14.02;43.25
10464;BME280;5279;42.048;24.638;2022-10-19T06:08:11;97795.09;;;14.19;43.31
10464;BME280;5279;42.048;24.638;2022-10-19T06:10:38;97796.63;;;14.30;41.47
10464;BME280;5279;42.048;24.638;2022-10-19T06:13:05;97799.13;;;14.31;40.45
10464;BME280;5279;42.048;24.638;2022-10-19T06:15:35;97794.66;;;14.32;38.92
10464;BME280;5279;42.048;24.638;2022-10-19T06:18:05;97791.50;;;14.36;37.90
10464;BME280;5279;42.048;24.638;2022-10-19T06:20:33;97795.84;;;14.53;37.23
10464;BME280;5279;42.048;24.638;2022-10-19T06:23:00;97788.53;;;14.63;39.38
10464;BME280;5279;42.048;24.638;2022-10-19T06:25:28;97797.72;;;14.85;38.25
10464;BME280;5279;42.048;24.638;2022-10-19T06:27:57;97787.72;;;15.11;37.02
10464;BME280;5279;42.048;24.638;2022-10-19T06:30:24;97779.38;;;15.14;39.56
10464;BME280;5279;42.048;24.638;2022-10-19T06:32:53;97789.03;;;15.23;40.83
10464;BME280;5279;42.048;24.638;2022-10-19T06:35:20;97783.31;;;15.51;40.95
10464;BME280;5279;42.048;24.638;2022-10-19T06:37:47;97783.59;;;15.80;40.29
10464;BME280;5279;42.048;24.638;2022-10-19T06:40:14;97786.16;;;16.04;39.31
10464;BME280;5279;42.048;24.638;2022-10-19T06:42:41;97779.78;;;16.36;39.05
10464;BME280;5279;42.048;24.638;2022-10-19T06:45:09;97783.38;;;16.28;39.44
10464;BME280;5279;42.048;24.638;2022-10-19T06:47:36;97780.63;;;16.36;39.23
10464;BME280;5279;42.048;24.638;2022-10-19T06:50:05;97774.22;;;16.46;40.43
10464;BME280;5279;42.048;24.638;2022-10-19T06:52:33;97777.19;;;16.51;40.26
10464;BME280;5279;42.048;24.638;2022-10-19T06:55:00;97770.19;;;16.50;40.05
10464;BME280;5279;42.048;24.638;2022-10-19T06:57:27;97757.69;;;16.42;39.68
10464;BME280;5279;42.048;24.638;2022-10-19T06:59:54;97766.97;;;16.31;40.09
10464;BME280;5279;42.048;24.638;2022-10-19T07:02:23;97770.63;;;16.30;40.77
10464;BME280;5279;42.048;24.638;2022-10-19T07:04:50;97758.88;;;16.39;40.36
10464;BME280;5279;42.048;24.638;2022-10-19T07:07:19;97760.09;;;16.60;40.59
10464;BME280;5279;42.048;24.638;2022-10-19T07:09:46;97761.91;;;16.67;40.25
10464;BME280;5279;42.048;24.638;2022-10-19T07:12:13;97759.38;;;16.66;41.15
10464;BME280;5279;42.048;24.638;2022-10-19T07:14:42;97763.66;;;16.75;40.75
10464;BME280;5279;42.048;24.638;2022-10-19T07:17:10;97764.03;;;16.72;40.78
10464;BME280;5279;42.048;24.638;2022-10-19T07:19:37;97760.22;;;16.89;40.06
10464;BME280;5279;42.048;24.638;2022-10-19T07:22:04;97751.75;;;17.00;39.69
10464;BME280;5279;42.048;24.638;2022-10-19T07:24:32;97753.66;;;17.14;40.39
10464;BME280;5279;42.048;24.638;2022-10-19T07:27:15;97750.16;;;17.28;40.03
10464;BME280;5279;42.048;24.638;2022-10-19T07:29:42;97749.13;;;17.29;38.88
10464;BME280;5279;42.048;24.638;2022-10-19T07:32:09;97750.28;;;17.12;39.60
10464;BME280;5279;42.048;24.638;2022-10-19T07:34:36;97749.94;;;17.15;39.04
10464;BME280;5279;42.048;24.638;2022-10-19T07:37:03;97748.31;;;17.43;39.85
10464;BME280;5279;42.048;24.638;2022-10-19T07:39:30;97749.44;;;17.64;38.91
10464;BME280;5279;42.048;24.638;2022-10-19T07:41:59;97742.81;;;17.60;39.45
10464;BME280;5279;42.048;24.638;2022-10-19T07:44:26;97751.34;;;17.26;39.45
10464;BME280;5279;42.048;24.638;2022-10-19T07:46:53;97731.50;;;17.49;38.75
10464;BME280;5279;42.048;24.638;2022-10-19T07:49:20;97739.59;;;18.00;38.63
10464;BME280;5279;42.048;24.638;2022-10-19T07:51:46;97734.88;;;18.52;37.31
10464;BME280;5279;42.048;24.638;2022-10-19T07:54:18;97723.31;;;19.01;36.17
10464;BME280;5279;42.048;24.638;2022-10-19T07:56:45;97736.03;;;19.14;36.62
10464;BME280;5279;42.048;24.638;2022-10-19T07:59:13;97721.44;;;19.23;35.61
10464;BME280;5279;42.048;24.638;2022-10-19T08:01:41;97718.47;;;19.11;36.10
10464;BME280;5279;42.048;24.638;2022-10-19T08:04:09;97722.03;;;19.46;35.58
10464;BME280;5279;42.048;24.638;2022-10-19T08:06:36;97721.66;;;19.55;35.38
10464;BME280;5279;42.048;24.638;2022-10-19T08:09:04;97718.47;;;19.80;33.54
10464;BME280;5279;42.048;24.638;2022-10-19T08:11:33;97713.22;;;19.99;34.55
10464;BME280;5279;42.048;24.638;2022-10-19T08:14:01;97713.63;;;20.03;33.80
10464;BME280;5279;42.048;24.638;2022-10-19T08:16:31;97719.03;;;20.16;31.54
10464;BME280;5279;42.048;24.638;2022-10-19T08:18:59;97722.28;;;20.39;32.12
10464;BME280;5279;42.048;24.638;2022-10-19T08:21:27;97716.72;;;20.60;32.13
10464;BME280;5279;42.048;24.638;2022-10-19T08:23:55;97710.09;;;20.69;32.12
10464;BME280;5279;42.048;24.638;2022-10-19T08:26:22;97696.44;;;20.91;31.30
10464;BME280;5279;42.048;24.638;2022-10-19T08:28:49;97695.19;;;21.00;31.13
10464;BME280;5279;42.048;24.638;2022-10-19T08:31:18;97694.97;;;21.08;29.90
10464;BME280;5279;42.048;24.638;2022-10-19T08:33:48;97694.34;;;21.39;30.62
10464;BME280;5279;42.048;24.638;2022-10-19T08:36:18;97691.13;;;21.74;30.39
10464;BME280;5279;42.048;24.638;2022-10-19T08:38:46;97687.53;;;22.00;28.76
10464;BME280;5279;42.048;24.638;2022-10-19T08:41:29;97685.81;;;22.12;29.41
10464;BME280;5279;42.048;24.638;2022-10-19T08:44:18;97680.50;;;22.37;28.59
10464;BME280;5279;42.048;24.638;2022-10-19T08:46:52;97676.22;;;22.85;28.88
10464;BME280;5279;42.048;24.638;2022-10-19T08:49:24;97670.28;;;23.63;27.02
10464;BME280;5279;42.048;24.638;2022-10-19T08:51:56;97673.84;;;24.59;25.88
10464;BME280;5279;42.048;24.638;2022-10-19T08:54:31;97663.66;;;25.89;24.25
10464;BME280;5279;42.048;24.638;2022-10-19T08:57:05;97661.41;;;26.54;23.15
10464;BME280;5279;42.048;24.638;2022-10-19T08:59:40;97666.25;;;27.47;22.59
10464;BME280;5279;42.048;24.638;2022-10-19T09:02:14;97657.66;;;28.42;22.33
10464;BME280;5279;42.048;24.638;2022-10-19T09:04:48;97667.66;;;29.21;20.68
10464;BME280;5279;42.048;24.638;2022-10-19T09:07:26;97653.16;;;29.53;20.11
10464;BME280;5279;42.048;24.638;2022-10-19T09:09:56;97657.91;;;30.29;19.52
10464;BME280;5279;42.048;24.638;2022-10-19T09:12:32;97652.56;;;30.70;19.47
10464;BME280;5279;42.048;24.638;2022-10-19T09:15:03;97647.63;;;31.42;18.70
10464;BME280;5279;42.048;24.638;2022-10-19T09:17:31;97657.38;;;31.89;18.32
10464;BME280;5279;42.048;24.638;2022-10-19T09:20:13;97659.81;;;32.06;18.23
10464;BME280;5279;42.048;24.638;2022-10-19T09:22:42;97658.34;;;32.28;18.09
10464;BME280;5279;42.048;24.638;2022-10-19T09:25:13;97648.50;;;33.05;17.47
10464;BME280;5279;42.048;24.638;2022-10-19T09:27:41;97652.69;;;33.89;16.37
10464;BME280;5279;42.048;24.638;2022-10-19T09:30:16;97637.00;;;34.08;16.46
10464;BME280;5279;42.048;24.638;2022-10-19T09:32:44;97641.84;;;33.97;16.15
10464;BME280;5279;42.048;24.638;2022-10-19T09:35:23;97632.88;;;34.53;15.87
10464;BME280;5279;42.048;24.638;2022-10-19T09:37:51;97630.66;;;35.06;15.92
10464;BME280;5279;42.048;24.638;2022-10-19T09:40:21;97634.78;;;35.41;15.24
10464;BME280;5279;42.048;24.638;2022-10-19T09:42:50;97635.34;;;35.05;15.08
10464;BME280;5279;42.048;24.638;2022-10-19T09:45:33;97613.72;;;35.45;15.37
10464;BME280;5279;42.048;24.638;2022-10-19T09:48:05;97620.56;;;35.20;15.52
10464;BME280;5279;42.048;24.638;2022-10-19T09:50:43;97617.59;;;35.90;14.88
10464;BME280;5279;42.048;24.638;2022-10-19T09:53:17;97619.94;;;36.24;14.46
10464;BME280;5279;42.048;24.638;2022-10-19T09:55:48;97607.25;;;35.82;14.28
10464;BME280;5279;42.048;24.638;2022-10-19T09:58:18;97611.44;;;36.06;14.61
10464;BME280;5279;42.048;24.638;2022-10-19T10:00:47;97613.47;;;36.14;14.35
10464;BME280;5279;42.048;24.638;2022-10-19T10:03:28;97589.81;;;35.59;14.31
10464;BME280;5279;42.048;24.638;2022-10-19T10:05:58;97605.31;;;35.96;13.60
10464;BME280;5279;42.048;24.638;2022-10-19T10:08:32;97587.59;;;35.29;14.35
10464;BME280;5279;42.048;24.638;2022-10-19T10:11:07;97591.50;;;36.23;14.19
10464;BME280;5279;42.048;24.638;2022-10-19T10:13:37;97585.84;;;36.28;14.27
10464;BME280;5279;42.048;24.638;2022-10-19T10:16:07;97600.72;;;36.54;13.49
10464;BME280;5279;42.048;24.638;2022-10-19T10:18:36;97593.59;;;36.98;13.36
10464;BME280;5279;42.048;24.638;2022-10-19T10:21:11;97583.44;;;37.07;13.13
10464;BME280;5279;42.048;24.638;2022-10-19T10:23:39;97589.09;;;36.80;13.61
10464;BME280;5279;42.048;24.638;2022-10-19T10:26:15;97585.81;;;37.22;13.28
10464;BME280;5279;42.048;24.638;2022-10-19T10:28:48;97576.22;;;37.90;12.74
10464;BME280;5279;42.048;24.638;2022-10-19T10:31:19;97566.81;;;37.91;12.52
10464;BME280;5279;42.048;24.638;2022-10-19T10:33:54;97570.06;;;38.10;12.80
10464;BME280;5279;42.048;24.638;2022-10-19T10:36:27;97557.41;;;36.99;13.04
10464;BME280;5279;42.048;24.638;2022-10-19T10:39:00;97561.06;;;37.87;12.98
10464;BME280;5279;42.048;24.638;2022-10-19T10:41:30;97552.19;;;38.33;12.89
10464;BME280;5279;42.048;24.638;2022-10-19T10:44:06;97545.84;;;38.58;11.90
10464;BME280;5279;42.048;24.638;2022-10-19T10:46:36;97543.91;;;38.76;12.01
10464;BME280;5279;42.048;24.638;2022-10-19T10:49:15;97546.69;;;38.50;12.38
10464;BME280;5279;42.048;24.638;2022-10-19T10:51:50;97547.50;;;39.40;11.63
10464;BME280;5279;42.048;24.638;2022-10-19T10:54:19;97540.94;;;38.98;12.16
10464;BME280;5279;42.048;24.638;2022-10-19T10:57:05;97531.91;;;39.27;11.46
10464;BME280;5279;42.048;24.638;2022-10-19T10:59:43;97537.22;;;40.37;10.91
10464;BME280;5279;42.048;24.638;2022-10-19T11:02:25;97527.03;;;40.62;9.69
10464;BME280;5279;42.048;24.638;2022-10-19T11:05:00;97528.78;;;40.66;10.63
10464;BME280;5279;42.048;24.638;2022-10-19T11:07:32;97529.06;;;40.32;10.67
10464;BME280;5279;42.048;24.638;2022-10-19T11:10:03;97527.44;;;38.79;9.99
10464;BME280;5279;42.048;24.638;2022-10-19T11:12:37;97521.88;;;38.28;10.01
10464;BME280;5279;42.048;24.638;2022-10-19T11:15:14;97522.25;;;38.35;10.36
10464;BME280;5279;42.048;24.638;2022-10-19T11:17:54;97516.50;;;38.92;10.47
10464;BME280;5279;42.048;24.638;2022-10-19T11:20:26;97506.63;;;39.66;9.77
10464;BME280;5279;42.048;24.638;2022-10-19T11:23:04;97498.81;;;39.60;9.72
10464;BME280;5279;42.048;24.638;2022-10-19T11:25:42;97507.19;;;39.51;9.50
10464;BME280;5279;42.048;24.638;2022-10-19T11:28:26;97508.03;;;40.02;10.04
10464;BME280;5279;42.048;24.638;2022-10-19T11:31:02;97499.44;;;39.19;9.39
10464;BME280;5279;42.048;24.638;2022-10-19T11:33:47;97477.41;;;38.67;9.80
10464;BME280;5279;42.048;24.638;2022-10-19T11:36:30;97485.44;;;39.53;9.93
10464;BME280;5279;42.048;24.638;2022-10-19T11:39:14;97485.06;;;38.88;9.70
10464;BME280;5279;42.048;24.638;2022-10-19T11:41:50;97481.13;;;38.89;9.63
10464;BME280;5279;42.048;24.638;2022-10-19T11:44:31;97469.28;;;39.26;9.70
10464;BME280;5279;42.048;24.638;2022-10-19T11:47:16;97475.66;;;41.01;8.85
10464;BME280;5279;42.048;24.638;2022-10-19T11:49:54;97471.97;;;41.21;9.27
10464;BME280;5279;42.048;24.638;2022-10-19T11:52:29;97473.16;;;41.80;9.18
10464;BME280;5279;42.048;24.638;2022-10-19T11:55:15;97468.75;;;42.59;8.71
10464;BME280;5279;42.048;24.638;2022-10-19T11:57:52;97466.00;;;42.47;7.83
10464;BME280;5279;42.048;24.638;2022-10-19T12:00:21;97466.97;;;40.69;8.46
10464;BME280;5279;42.048;24.638;2022-10-19T12:03:11;97461.47;;;40.28;9.05
10464;BME280;5279;42.048;24.638;2022-10-19T12:05:49;97473.00;;;39.88;9.06
10464;BME280;5279;42.048;24.638;2022-10-19T12:08:30;97472.00;;;39.72;9.22
10464;BME280;5279;42.048;24.638;2022-10-19T12:11:12;97459.19;;;40.01;8.73
10464;BME280;5279;42.048;24.638;2022-10-19T12:13:50;97472.53;;;39.86;9.11
10464;BME280;5279;42.048;24.638;2022-10-19T12:16:25;97450.72;;;39.18;9.20
10464;BME280;5279;42.048;24.638;2022-10-19T12:18:57;97457.19;;;39.60;9.24
10464;BME280;5279;42.048;24.638;2022-10-19T12:21:27;97459.63;;;38.86;8.97
10464;BME280;5279;42.048;24.638;2022-10-19T12:23:56;97460.16;;;39.55;9.20
10464;BME280;5279;42.048;24.638;2022-10-19T12:26:31;97437.88;;;39.93;9.12
10464;BME280;5279;42.048;24.638;2022-10-19T12:29:03;97432.38;;;39.34;9.33
10464;BME280;5279;42.048;24.638;2022-10-19T12:31:34;97437.66;;;39.27;8.93
10464;BME280;5279;42.048;24.638;2022-10-19T12:34:06;97427.13;;;38.14;9.66
10464;BME280;5279;42.048;24.638;2022-10-19T12:36:39;97419.38;;;39.26;9.52
10464;BME280;5279;42.048;24.638;2022-10-19T12:39:14;97418.00;;;40.11;9.36
10464;BME280;5279;42.048;24.638;2022-10-19T12:41:49;97402.66;;;40.26;8.75
10464;BME280;5279;42.048;24.638;2022-10-19T12:44:34;97401.94;;;40.82;8.20
10464;BME280;5279;42.048;24.638;2022-10-19T12:47:10;97411.59;;;40.97;8.08
10464;BME280;5279;42.048;24.638;2022-10-19T12:49:48;97418.81;;;40.77;8.70
10464;BME280;5279;42.048;24.638;2022-10-19T12:52:32;97409.97;;;40.51;8.64
10464;BME280;5279;42.048;24.638;2022-10-19T12:55:10;97406.84;;;40.98;8.77
10464;BME280;5279;42.048;24.638;2022-10-19T12:57:43;97418.56;;;41.39;8.29
10464;BME280;5279;42.048;24.638;2022-10-19T13:00:19;97403.69;;;41.23;8.41
10464;BME280;5279;42.048;24.638;2022-10-19T13:02:54;97403.72;;;42.00;8.12
10464;BME280;5279;42.048;24.638;2022-10-19T13:05:24;97408.75;;;43.09;7.98
10464;BME280;5279;42.048;24.638;2022-10-19T13:07:52;97398.41;;;42.93;7.45
10464;BME280;5279;42.048;24.638;2022-10-19T13:10:22;97399.59;;;43.74;7.31
10464;BME280;5279;42.048;24.638;2022-10-19T13:12:51;97388.59;;;42.25;7.38
10464;BME280;5279;42.048;24.638;2022-10-19T13:21:46;97381.34;;;43.11;6.85
10464;BME280;5279;42.048;24.638;2022-10-19T13:24:35;97379.69;;;43.76;6.90
10464;BME280;5279;42.048;24.638;2022-10-19T13:27:35;97386.75;;;43.54;6.60
10464;BME280;5279;42.048;24.638;2022-10-19T13:33:48;97377.69;;;42.08;7.10
10464;BME280;5279;42.048;24.638;2022-10-19T13:36:17;97381.28;;;40.83;8.07
10464;BME280;5279;42.048;24.638;2022-10-19T13:38:45;97382.97;;;39.57;8.60